sensor_id;sensor_type;location;lat;lon;timestamp;pressure;altitude;pressure_sealevel;temperature;humidity
66547;BME280;53400;50.364;14.874;2023-02-28T00:02:23;99817.22;;;-1.09;80.09
66547;BME280;53400;50.364;14.874;2023-02-28T00:04:49;99815.53;;;-1.01;79.53
66547;BME280;53400;50.364;14.874;2023-02-28T00:07:18;99817.22;;;-1.19;80.42
66547;BME280;53400;50.364;14.874;2023-02-28T00:09:45;99816.94;;;-1.16;79.89
66547;BME280;53400;50.364;14.874;2023-02-28T00:12:12;99815.53;;;-1.10;79.50
66547;BME280;53400;50.364;14.874;2023-02-28T00:14:38;99814.97;;;-1.04;79.20
66547;BME280;53400;50.364;14.874;2023-02-28T00:17:03;99824.09;;;-0.89;77.97
66547;BME280;53400;50.364;14.874;2023-02-28T00:19:29;99814.59;;;-1.19;78.49
66547;BME280;53400;50.364;14.874;2023-02-28T00:21:55;99824.00;;;-1.26;79.07
66547;BME280;53400;50.364;14.874;2023-02-28T00:24:21;99818.75;;;-1.36;79.72
66547;BME280;53400;50.364;14.874;2023-02-28T00:26:48;99822.63;;;-1.30;79.89
66547;BME280;53400;50.364;14.874;2023-02-28T00:29:14;99821.91;;;-1.23;79.39
66547;BME280;53400;50.364;14.874;2023-02-28T00:31:40;99819.28;;;-1.23;78.87
66547;BME280;53400;50.364;14.874;2023-02-28T00:34:06;99827.72;;;-1.29;79.41
66547;BME280;53400;50.364;14.874;2023-02-28T00:36:31;99831.75;;;-1.34;79.02
66547;BME280;53400;50.364;14.874;2023-02-28T00:38:57;99826.66;;;-1.36;78.50
66547;BME280;53400;50.364;14.874;2023-02-28T00:41:23;99824.84;;;-1.35;78.73
66547;BME280;53400;50.364;14.874;2023-02-28T00:43:50;99829.69;;;-1.60;78.67
66547;BME280;53400;50.364;14.874;2023-02-28T00:46:16;99832.31;;;-1.50;77.12
66547;BME280;53400;50.364;14.874;2023-02-28T00:48:42;99828.72;;;-1.40;76.99
66547;BME280;53400;50.364;14.874;2023-02-28T00:51:08;99828.41;;;-1.46;77.08
66547;BME280;53400;50.364;14.874;2023-02-28T00:53:34;99826.22;;;-1.31;77.18
66547;BME280;53400;50.364;14.874;2023-02-28T00:56:01;99828.84;;;-1.51;76.74
66547;BME280;53400;50.364;14.874;2023-02-28T00:58:27;99833.97;;;-1.40;76.96
66547;BME280;53400;50.364;14.874;2023-02-28T01:00:54;99828.84;;;-1.31;75.88
66547;BME280;53400;50.364;14.874;2023-02-28T01:03:21;99826.38;;;-1.43;76.51
66547;BME280;53400;50.364;14.874;2023-02-28T01:05:48;99822.06;;;-1.34;76.96
66547;BME280;53400;50.364;14.874;2023-02-28T01:08:14;99826.63;;;-1.17;76.70
66547;BME280;53400;50.364;14.874;2023-02-28T01:10:40;99826.66;;;-1.36;77.23
66547;BME280;53400;50.364;14.874;2023-02-28T01:13:07;99822.34;;;-1.18;77.20
66547;BME280;53400;50.364;14.874;2023-02-28T01:15:32;99815.31;;;-1.36;78.04
66547;BME280;53400;50.364;14.874;2023-02-28T01:18:00;99817.50;;;-1.22;77.93
66547;BME280;53400;50.364;14.874;2023-02-28T01:20:26;99814.34;;;-1.45;78.47
66547;BME280;53400;50.364;14.874;2023-02-28T01:22:52;99821.94;;;-1.42;79.11
66547;BME280;53400;50.364;14.874;2023-02-28T01:25:17;99814.19;;;-1.44;78.51
66547;BME280;53400;50.364;14.874;2023-02-28T01:27:43;99811.56;;;-1.24;78.17
66547;BME280;53400;50.364;14.874;2023-02-28T01:30:11;99809.63;;;-1.32;77.73
66547;BME280;53400;50.364;14.874;2023-02-28T01:32:37;99811.69;;;-1.35;77.93
66547;BME280;53400;50.364;14.874;2023-02-28T01:35:05;99810.34;;;-1.40;77.84
66547;BME280;53400;50.364;14.874;2023-02-28T01:37:31;99807.13;;;-1.63;79.13
66547;BME280;53400;50.364;14.874;2023-02-28T01:39:57;99810.16;;;-1.38;78.33
66547;BME280;53400;50.364;14.874;2023-02-28T01:42:23;99817.38;;;-1.50;78.21
66547;BME280;53400;50.364;14.874;2023-02-28T01:45:00;99818.22;;;-1.40;78.71
66547;BME280;53400;50.364;14.874;2023-02-28T01:47:29;99822.34;;;-1.37;79.07
66547;BME280;53400;50.364;14.874;2023-02-28T01:49:56;99820.94;;;-1.31;78.71
66547;BME280;53400;50.364;14.874;2023-02-28T01:52:24;99816.53;;;-1.41;78.64
66547;BME280;53400;50.364;14.874;2023-02-28T01:54:54;99813.34;;;-1.34;78.64
66547;BME280;53400;50.364;14.874;2023-02-28T01:57:24;99819.84;;;-1.29;78.08
66547;BME280;53400;50.364;14.874;2023-02-28T01:59:53;99808.53;;;-1.49;78.91
66547;BME280;53400;50.364;14.874;2023-02-28T02:02:22;99812.66;;;-1.56;79.05
66547;BME280;53400;50.364;14.874;2023-02-28T02:04:51;99814.19;;;-1.44;78.83
66547;BME280;53400;50.364;14.874;2023-02-28T02:07:19;99818.19;;;-1.30;78.18
66547;BME280;53400;50.364;14.874;2023-02-28T02:09:47;99812.25;;;-1.32;78.14
66547;BME280;53400;50.364;14.874;2023-02-28T02:12:22;99812.66;;;-1.17;77.49
66547;BME280;53400;50.364;14.874;2023-02-28T02:14:59;99810.59;;;-1.33;77.61
66547;BME280;53400;50.364;14.874;2023-02-28T02:17:32;99810.44;;;-1.31;77.36
66547;BME280;53400;50.364;14.874;2023-02-28T02:23:33;99797.88;;;-1.67;78.74
66547;BME280;53400;50.364;14.874;2023-02-28T02:35:47;99805.75;;;-1.76;79.00
66547;BME280;53400;50.364;14.874;2023-02-28T02:38:22;99793.56;;;-1.68;78.46
66547;BME280;53400;50.364;14.874;2023-02-28T02:40:56;99796.91;;;-1.75;78.79
66547;BME280;53400;50.364;14.874;2023-02-28T02:43:26;99797.13;;;-2.08;79.44
66547;BME280;53400;50.364;14.874;2023-02-28T02:45:56;99800.47;;;-1.96;79.44
66547;BME280;53400;50.364;14.874;2023-02-28T02:48:29;99805.28;;;-2.01;79.79
66547;BME280;53400;50.364;14.874;2023-02-28T02:51:00;99800.19;;;-1.93;78.53
66547;BME280;53400;50.364;14.874;2023-02-28T02:53:30;99796.19;;;-1.87;78.13
66547;BME280;53400;50.364;14.874;2023-02-28T02:55:59;99793.41;;;-1.95;78.79
66547;BME280;53400;50.364;14.874;2023-02-28T02:58:29;99803.91;;;-2.05;78.90
66547;BME280;53400;50.364;14.874;2023-02-28T03:01:00;99807.88;;;-2.11;79.14
66547;BME280;53400;50.364;14.874;2023-02-28T03:03:27;99801.88;;;-2.32;80.11
66547;BME280;53400;50.364;14.874;2023-02-28T03:05:58;99805.50;;;-2.23;79.90
66547;BME280;53400;50.364;14.874;2023-02-28T03:08:24;99804.25;;;-2.19;79.57
66547;BME280;53400;50.364;14.874;2023-02-28T03:10:52;99806.34;;;-2.23;79.06
66547;BME280;53400;50.364;14.874;2023-02-28T03:13:48;99804.66;;;-2.34;79.13
66547;BME280;53400;50.364;14.874;2023-02-28T03:16:46;99811.78;;;-2.45;79.91
66547;BME280;53400;50.364;14.874;2023-02-28T03:19:28;99803.38;;;-2.49;79.96
66547;BME280;53400;50.364;14.874;2023-02-28T03:22:09;99807.16;;;-2.63;80.27
66547;BME280;53400;50.364;14.874;2023-02-28T03:24:43;99803.19;;;-2.57;79.85
66547;BME280;53400;50.364;14.874;2023-02-28T03:27:17;99802.53;;;-2.49;79.95
66547;BME280;53400;50.364;14.874;2023-02-28T03:29:51;99806.09;;;-2.50;80.17
66547;BME280;53400;50.364;14.874;2023-02-28T03:32:25;99802.66;;;-2.51;79.87
66547;BME280;53400;50.364;14.874;2023-02-28T03:34:58;99801.38;;;-2.57;80.06
66547;BME280;53400;50.364;14.874;2023-02-28T03:37:28;99799.44;;;-2.64;80.14
66547;BME280;53400;50.364;14.874;2023-02-28T03:40:01;99795.13;;;-2.65;80.48
66547;BME280;53400;50.364;14.874;2023-02-28T03:42:31;99804.72;;;-2.55;80.24
66547;BME280;53400;50.364;14.874;2023-02-28T03:45:01;99802.59;;;-2.70;80.50
66547;BME280;53400;50.364;14.874;2023-02-28T03:47:31;99802.44;;;-2.69;80.44
66547;BME280;53400;50.364;14.874;2023-02-28T03:50:02;99804.72;;;-2.55;79.84
66547;BME280;53400;50.364;14.874;2023-02-28T03:52:34;99803.25;;;-2.68;80.07
66547;BME280;53400;50.364;14.874;2023-02-28T03:55:06;99807.38;;;-2.75;80.63
66547;BME280;53400;50.364;14.874;2023-02-28T03:57:39;99803.38;;;-2.80;80.92
66547;BME280;53400;50.364;14.874;2023-02-28T04:00:09;99807.91;;;-2.82;80.88
66547;BME280;53400;50.364;14.874;2023-02-28T04:02:38;99799.53;;;-2.75;80.48
66547;BME280;53400;50.364;14.874;2023-02-28T04:05:05;99808.03;;;-2.83;80.64
66547;BME280;53400;50.364;14.874;2023-02-28T04:07:33;99801.28;;;-3.07;81.86
66547;BME280;53400;50.364;14.874;2023-02-28T04:09:59;99801.53;;;-3.10;81.71
66547;BME280;53400;50.364;14.874;2023-02-28T04:12:25;99806.63;;;-3.08;82.25
66547;BME280;53400;50.364;14.874;2023-02-28T04:14:51;99810.78;;;-3.06;82.11
66547;BME280;53400;50.364;14.874;2023-02-28T04:17:17;99815.97;;;-3.15;82.20
66547;BME280;53400;50.364;14.874;2023-02-28T04:19:43;99811.25;;;-3.42;83.22
66547;BME280;53400;50.364;14.874;2023-02-28T04:22:09;99812.38;;;-3.35;82.90
66547;BME280;53400;50.364;14.874;2023-02-28T04:24:37;99817.88;;;-3.38;83.28
66547;BME280;53400;50.364;14.874;2023-02-28T04:27:08;99817.50;;;-3.34;83.32
66547;BME280;53400;50.364;14.874;2023-02-28T04:29:34;99810.69;;;-3.25;83.30
66547;BME280;53400;50.364;14.874;2023-02-28T04:32:00;99815.28;;;-3.17;82.49
66547;BME280;53400;50.364;14.874;2023-02-28T04:34:27;99815.00;;;-3.14;82.29
66547;BME280;53400;50.364;14.874;2023-02-28T04:36:54;99811.94;;;-2.98;80.92
66547;BME280;53400;50.364;14.874;2023-02-28T04:39:21;99811.38;;;-3.02;81.20
66547;BME280;53400;50.364;14.874;2023-02-28T04:41:49;99816.28;;;-2.88;80.23
66547;BME280;53400;50.364;14.874;2023-02-28T04:44:15;99817.84;;;-3.06;80.65
66547;BME280;53400;50.364;14.874;2023-02-28T04:46:42;99814.06;;;-3.13;80.94
66547;BME280;53400;50.364;14.874;2023-02-28T04:49:08;99816.19;;;-3.07;80.83
66547;BME280;53400;50.364;14.874;2023-02-28T04:51:36;99823.78;;;-3.04;80.23
66547;BME280;53400;50.364;14.874;2023-02-28T04:54:02;99817.44;;;-3.02;80.09
66547;BME280;53400;50.364;14.874;2023-02-28T04:56:28;99823.19;;;-3.08;79.66
66547;BME280;53400;50.364;14.874;2023-02-28T04:58:55;99818.19;;;-2.90;79.56
66547;BME280;53400;50.364;14.874;2023-02-28T05:01:23;99827.84;;;-2.90;79.55
66547;BME280;53400;50.364;14.874;2023-02-28T05:03:51;99819.53;;;-2.95;80.19
66547;BME280;53400;50.364;14.874;2023-02-28T05:06:18;99818.09;;;-3.09;80.64
66547;BME280;53400;50.364;14.874;2023-02-28T05:08:44;99818.72;;;-3.17;81.09
66547;BME280;53400;50.364;14.874;2023-02-28T05:11:15;99821.22;;;-3.15;81.52
66547;BME280;53400;50.364;14.874;2023-02-28T05:13:41;99832.78;;;-3.18;81.38
66547;BME280;53400;50.364;14.874;2023-02-28T05:16:08;99831.72;;;-3.15;80.82
66547;BME280;53400;50.364;14.874;2023-02-28T05:18:34;99833.44;;;-3.26;81.08
66547;BME280;53400;50.364;14.874;2023-02-28T05:21:00;99828.31;;;-3.27;81.61
66547;BME280;53400;50.364;14.874;2023-02-28T05:23:29;99838.16;;;-3.40;82.24
66547;BME280;53400;50.364;14.874;2023-02-28T05:25:55;99838.91;;;-3.29;81.21
66547;BME280;53400;50.364;14.874;2023-02-28T05:28:21;99845.25;;;-3.31;81.29
66547;BME280;53400;50.364;14.874;2023-02-28T05:30:47;99842.22;;;-3.27;81.16
66547;BME280;53400;50.364;14.874;2023-02-28T05:33:15;99850.13;;;-3.38;81.58
66547;BME280;53400;50.364;14.874;2023-02-28T05:35:44;99842.19;;;-3.48;82.25
66547;BME280;53400;50.364;14.874;2023-02-28T05:38:10;99843.91;;;-3.58;81.65
66547;BME280;53400;50.364;14.874;2023-02-28T05:40:38;99851.84;;;-3.48;81.82
66547;BME280;53400;50.364;14.874;2023-02-28T05:43:04;99852.84;;;-3.60;82.06
66547;BME280;53400;50.364;14.874;2023-02-28T05:45:30;99854.63;;;-3.61;81.67
66547;BME280;53400;50.364;14.874;2023-02-28T05:47:56;99860.22;;;-3.54;81.96
66547;BME280;53400;50.364;14.874;2023-02-28T05:50:23;99862.72;;;-3.32;84.14
66547;BME280;53400;50.364;14.874;2023-02-28T05:52:49;99866.72;;;-2.95;86.78
66547;BME280;53400;50.364;14.874;2023-02-28T05:55:15;99860.09;;;-3.32;81.59
66547;BME280;53400;50.364;14.874;2023-02-28T05:57:41;99862.94;;;-3.24;80.27
66547;BME280;53400;50.364;14.874;2023-02-28T06:00:09;99867.53;;;-3.37;79.71
66547;BME280;53400;50.364;14.874;2023-02-28T06:02:35;99863.06;;;-3.57;80.49
66547;BME280;53400;50.364;14.874;2023-02-28T06:05:01;99870.06;;;-3.47;80.12
66547;BME280;53400;50.364;14.874;2023-02-28T06:07:28;99874.63;;;-3.28;79.33
66547;BME280;53400;50.364;14.874;2023-02-28T06:09:54;99872.56;;;-3.13;78.93
66547;BME280;53400;50.364;14.874;2023-02-28T06:12:20;99872.22;;;-2.98;79.73
66547;BME280;53400;50.364;14.874;2023-02-28T06:14:46;99883.47;;;-2.87;80.02
66547;BME280;53400;50.364;14.874;2023-02-28T06:17:12;99884.03;;;-2.83;80.17
66547;BME280;53400;50.364;14.874;2023-02-28T06:19:38;99887.19;;;-2.68;79.28
66547;BME280;53400;50.364;14.874;2023-02-28T06:22:05;99880.53;;;-2.72;80.11
66547;BME280;53400;50.364;14.874;2023-02-28T06:24:32;99883.91;;;-2.40;80.17
66547;BME280;53400;50.364;14.874;2023-02-28T06:26:58;99884.31;;;-2.04;80.41
66547;BME280;53400;50.364;14.874;2023-02-28T06:29:30;99888.00;;;-1.76;78.54
66547;BME280;53400;50.364;14.874;2023-02-28T06:31:56;99890.94;;;-1.50;76.82
66547;BME280;53400;50.364;14.874;2023-02-28T06:34:22;99898.03;;;-1.11;77.05
66547;BME280;53400;50.364;14.874;2023-02-28T06:36:50;99897.28;;;-1.52;76.74
66547;BME280;53400;50.364;14.874;2023-02-28T06:39:16;99893.72;;;-1.32;75.48
66547;BME280;53400;50.364;14.874;2023-02-28T06:41:44;99903.25;;;-0.92;76.24
66547;BME280;53400;50.364;14.874;2023-02-28T06:44:12;99903.00;;;-1.08;74.58
66547;BME280;53400;50.364;14.874;2023-02-28T06:46:39;99910.94;;;-0.42;76.16
66547;BME280;53400;50.364;14.874;2023-02-28T06:49:05;99904.78;;;-0.23;72.19
66547;BME280;53400;50.364;14.874;2023-02-28T06:51:35;99914.03;;;-0.56;70.42
66547;BME280;53400;50.364;14.874;2023-02-28T06:54:03;99924.28;;;-0.63;74.25
66547;BME280;53400;50.364;14.874;2023-02-28T06:56:29;99917.38;;;-1.22;70.94
66547;BME280;53400;50.364;14.874;2023-02-28T06:58:56;99914.47;;;-1.48;71.27
66547;BME280;53400;50.364;14.874;2023-02-28T07:01:22;99921.91;;;-1.53;72.86
66547;BME280;53400;50.364;14.874;2023-02-28T07:03:50;99924.03;;;-1.28;73.98
66547;BME280;53400;50.364;14.874;2023-02-28T07:06:18;99922.63;;;-1.42;73.41
66547;BME280;53400;50.364;14.874;2023-02-28T07:08:44;99926.56;;;-1.76;71.10
66547;BME280;53400;50.364;14.874;2023-02-28T07:11:10;99920.59;;;-1.78;72.06
66547;BME280;53400;50.364;14.874;2023-02-28T07:13:36;99925.88;;;-1.69;71.60
66547;BME280;53400;50.364;14.874;2023-02-28T07:16:05;99928.19;;;-1.85;71.87
66547;BME280;53400;50.364;14.874;2023-02-28T07:18:31;99927.38;;;-1.76;71.36
66547;BME280;53400;50.364;14.874;2023-02-28T07:20:57;99929.75;;;-1.73;72.54
66547;BME280;53400;50.364;14.874;2023-02-28T07:23:24;99938.28;;;-1.21;78.49
66547;BME280;53400;50.364;14.874;2023-02-28T07:25:50;99931.22;;;-1.01;70.91
66547;BME280;53400;50.364;14.874;2023-02-28T07:28:16;99934.66;;;-1.49;68.45
66547;BME280;53400;50.364;14.874;2023-02-28T07:30:42;99924.53;;;-1.44;68.94
66547;BME280;53400;50.364;14.874;2023-02-28T07:33:10;99938.34;;;-1.61;67.78
66547;BME280;53400;50.364;14.874;2023-02-28T07:35:35;99928.53;;;-1.59;68.85
66547;BME280;53400;50.364;14.874;2023-02-28T07:38:02;99921.25;;;-1.26;69.07
66547;BME280;53400;50.364;14.874;2023-02-28T07:40:28;99934.69;;;-1.10;67.81
66547;BME280;53400;50.364;14.874;2023-02-28T07:42:54;99939.53;;;-1.05;66.81
66547;BME280;53400;50.364;14.874;2023-02-28T07:45:20;99923.22;;;-1.09;67.32
66547;BME280;53400;50.364;14.874;2023-02-28T07:47:46;99937.03;;;-1.26;67.25
66547;BME280;53400;50.364;14.874;2023-02-28T07:50:15;99938.41;;;-1.22;66.50
66547;BME280;53400;50.364;14.874;2023-02-28T07:52:41;99944.09;;;-1.07;67.39
66547;BME280;53400;50.364;14.874;2023-02-28T07:55:08;99931.22;;;-1.01;66.38
66547;BME280;53400;50.364;14.874;2023-02-28T07:57:35;99938.81;;;-0.98;66.85
66547;BME280;53400;50.364;14.874;2023-02-28T08:00:01;99928.00;;;-0.56;66.76
66547;BME280;53400;50.364;14.874;2023-02-28T08:02:29;99948.78;;;-0.62;64.44
66547;BME280;53400;50.364;14.874;2023-02-28T08:04:54;99938.53;;;-0.65;64.45
66547;BME280;53400;50.364;14.874;2023-02-28T08:07:22;99927.78;;;-0.82;63.33
66547;BME280;53400;50.364;14.874;2023-02-28T08:09:48;99935.22;;;-0.58;63.55
66547;BME280;53400;50.364;14.874;2023-02-28T08:12:14;99935.06;;;-0.56;63.90
66547;BME280;53400;50.364;14.874;2023-02-28T08:14:40;99951.69;;;-0.65;63.01
66547;BME280;53400;50.364;14.874;2023-02-28T08:17:06;99942.84;;;-0.55;62.58
66547;BME280;53400;50.364;14.874;2023-02-28T08:19:32;99935.38;;;-0.69;63.54
66547;BME280;53400;50.364;14.874;2023-02-28T08:21:58;99939.09;;;-0.62;63.77
66547;BME280;53400;50.364;14.874;2023-02-28T08:24:25;99927.06;;;-0.55;63.94
66547;BME280;53400;50.364;14.874;2023-02-28T08:26:52;99927.00;;;-0.35;62.82
66547;BME280;53400;50.364;14.874;2023-02-28T08:29:17;99930.19;;;-0.41;62.46
66547;BME280;53400;50.364;14.874;2023-02-28T08:31:44;99923.72;;;-0.57;62.28
66547;BME280;53400;50.364;14.874;2023-02-28T08:34:12;99927.28;;;-0.38;61.57
66547;BME280;53400;50.364;14.874;2023-02-28T08:36:39;99926.25;;;-0.18;62.88
66547;BME280;53400;50.364;14.874;2023-02-28T08:39:05;99931.25;;;-0.25;63.05
66547;BME280;53400;50.364;14.874;2023-02-28T08:41:33;99936.78;;;-0.28;62.54
66547;BME280;53400;50.364;14.874;2023-02-28T08:43:59;99945.84;;;-0.40;62.13
66547;BME280;53400;50.364;14.874;2023-02-28T08:46:26;99936.69;;;-0.36;61.83
66547;BME280;53400;50.364;14.874;2023-02-28T08:48:52;99940.59;;;-0.50;61.84
66547;BME280;53400;50.364;14.874;2023-02-28T08:51:19;99937.22;;;-0.22;61.20
66547;BME280;53400;50.364;14.874;2023-02-28T08:53:51;99942.34;;;-0.21;60.03
66547;BME280;53400;50.364;14.874;2023-02-28T08:56:19;99937.03;;;-0.11;61.32
66547;BME280;53400;50.364;14.874;2023-02-28T08:58:48;99942.59;;;-0.14;60.38
66547;BME280;53400;50.364;14.874;2023-02-28T09:01:15;99936.78;;;-0.18;60.16
66547;BME280;53400;50.364;14.874;2023-02-28T09:03:42;99934.28;;;-0.19;60.37
66547;BME280;53400;50.364;14.874;2023-02-28T09:06:09;99943.03;;;0.09;59.62
66547;BME280;53400;50.364;14.874;2023-02-28T09:08:36;99936.53;;;0.13;61.20
66547;BME280;53400;50.364;14.874;2023-02-28T09:11:02;99952.81;;;-0.02;60.67
66547;BME280;53400;50.364;14.874;2023-02-28T09:13:28;99936.66;;;0.11;60.29
66547;BME280;53400;50.364;14.874;2023-02-28T09:15:59;99928.97;;;0.28;60.51
66547;BME280;53400;50.364;14.874;2023-02-28T09:18:25;99932.50;;;0.46;59.16
66547;BME280;53400;50.364;14.874;2023-02-28T09:20:51;99936.78;;;0.47;59.04
66547;BME280;53400;50.364;14.874;2023-02-28T09:23:18;99948.00;;;0.49;59.63
66547;BME280;53400;50.364;14.874;2023-02-28T09:25:48;99935.66;;;0.50;59.93
66547;BME280;53400;50.364;14.874;2023-02-28T09:28:14;99934.16;;;0.65;59.33
66547;BME280;53400;50.364;14.874;2023-02-28T09:30:45;99938.25;;;0.95;57.97
66547;BME280;53400;50.364;14.874;2023-02-28T09:33:13;99943.72;;;0.66;59.06
66547;BME280;53400;50.364;14.874;2023-02-28T09:35:40;99947.28;;;0.75;58.42
66547;BME280;53400;50.364;14.874;2023-02-28T09:38:06;99939.59;;;0.36;57.59
66547;BME280;53400;50.364;14.874;2023-02-28T09:40:36;99939.88;;;0.33;58.36
66547;BME280;53400;50.364;14.874;2023-02-28T09:43:02;99940.16;;;0.57;58.18
66547;BME280;53400;50.364;14.874;2023-02-28T09:45:31;99941.69;;;0.60;58.98
66547;BME280;53400;50.364;14.874;2023-02-28T09:48:01;99944.03;;;0.63;58.28
66547;BME280;53400;50.364;14.874;2023-02-28T09:50:35;99946.06;;;0.69;56.77
66547;BME280;53400;50.364;14.874;2023-02-28T09:53:03;99951.88;;;0.73;57.03
66547;BME280;53400;50.364;14.874;2023-02-28T09:55:34;99945.97;;;0.61;56.91
66547;BME280;53400;50.364;14.874;2023-02-28T09:58:03;99946.34;;;0.66;57.85
66547;BME280;53400;50.364;14.874;2023-02-28T10:00:32;99946.59;;;0.73;58.16
66547;BME280;53400;50.364;14.874;2023-02-28T10:03:18;99940.91;;;0.95;57.86
66547;BME280;53400;50.364;14.874;2023-02-28T10:05:54;99938.78;;;0.99;56.08
66547;BME280;53400;50.364;14.874;2023-02-28T10:08:25;99941.41;;;0.99;57.57
66547;BME280;53400;50.364;14.874;2023-02-28T10:10:56;99942.63;;;1.04;57.56
66547;BME280;53400;50.364;14.874;2023-02-28T10:13:27;99947.00;;;1.13;57.73
66547;BME280;53400;50.364;14.874;2023-02-28T10:16:01;99942.47;;;1.24;57.02
66547;BME280;53400;50.364;14.874;2023-02-28T10:18:38;99951.13;;;1.34;55.74
66547;BME280;53400;50.364;14.874;2023-02-28T10:21:17;99942.66;;;1.30;56.67
66547;BME280;53400;50.364;14.874;2023-02-28T10:23:46;99942.16;;;1.09;56.22
66547;BME280;53400;50.364;14.874;2023-02-28T10:26:17;99934.09;;;1.10;57.27
66547;BME280;53400;50.364;14.874;2023-02-28T10:28:43;99937.78;;;0.82;56.95
66547;BME280;53400;50.364;14.874;2023-02-28T10:31:11;99941.03;;;1.11;57.95
66547;BME280;53400;50.364;14.874;2023-02-28T10:33:39;99936.16;;;1.43;58.13
66547;BME280;53400;50.364;14.874;2023-02-28T10:36:08;99933.44;;;1.52;56.01
66547;BME280;53400;50.364;14.874;2023-02-28T10:38:40;99929.09;;;1.69;56.48
66547;BME280;53400;50.364;14.874;2023-02-28T10:41:07;99938.50;;;1.46;55.06
66547;BME280;53400;50.364;14.874;2023-02-28T10:43:35;99931.94;;;1.50;56.13
66547;BME280;53400;50.364;14.874;2023-02-28T10:46:03;99930.59;;;1.72;55.49
66547;BME280;53400;50.364;14.874;2023-02-28T10:48:34;99927.41;;;1.42;54.71
66547;BME280;53400;50.364;14.874;2023-02-28T10:51:03;99919.66;;;1.93;55.41
66547;BME280;53400;50.364;14.874;2023-02-28T10:53:36;99926.97;;;1.73;56.47
66547;BME280;53400;50.364;14.874;2023-02-28T10:56:06;99912.53;;;2.27;55.74
66547;BME280;53400;50.364;14.874;2023-02-28T10:58:48;99919.50;;;2.28;53.67
66547;BME280;53400;50.364;14.874;2023-02-28T11:01:16;99917.66;;;1.95;54.71
66547;BME280;53400;50.364;14.874;2023-02-28T11:03:43;99910.22;;;1.90;54.86
66547;BME280;53400;50.364;14.874;2023-02-28T11:06:15;99915.13;;;2.11;54.83
66547;BME280;53400;50.364;14.874;2023-02-28T11:08:48;99915.47;;;2.16;55.35
66547;BME280;53400;50.364;14.874;2023-02-28T11:11:17;99915.25;;;2.01;55.05
66547;BME280;53400;50.364;14.874;2023-02-28T11:13:46;99910.81;;;1.50;53.70
66547;BME280;53400;50.364;14.874;2023-02-28T11:16:14;99910.03;;;1.83;55.22
66547;BME280;53400;50.364;14.874;2023-02-28T11:18:44;99902.50;;;1.97;52.68
66547;BME280;53400;50.364;14.874;2023-02-28T11:21:18;99893.47;;;2.08;53.55
66547;BME280;53400;50.364;14.874;2023-02-28T11:23:46;99905.91;;;2.23;54.37
66547;BME280;53400;50.364;14.874;2023-02-28T11:26:13;99905.25;;;2.21;53.01
66547;BME280;53400;50.364;14.874;2023-02-28T11:28:42;99905.19;;;2.47;52.83
66547;BME280;53400;50.364;14.874;2023-02-28T11:31:18;99907.97;;;2.03;53.32
66547;BME280;53400;50.364;14.874;2023-02-28T11:33:46;99890.66;;;2.09;52.63
66547;BME280;53400;50.364;14.874;2023-02-28T11:36:18;99890.09;;;2.40;53.13
66547;BME280;53400;50.364;14.874;2023-02-28T11:38:44;99888.44;;;2.39;54.42
66547;BME280;53400;50.364;14.874;2023-02-28T11:41:46;99893.59;;;1.98;53.17
66547;BME280;53400;50.364;14.874;2023-02-28T11:44:29;99887.56;;;2.22;54.70
66547;BME280;53400;50.364;14.874;2023-02-28T11:47:04;99901.31;;;2.25;53.93
66547;BME280;53400;50.364;14.874;2023-02-28T11:49:37;99888.41;;;2.22;53.78
66547;BME280;53400;50.364;14.874;2023-02-28T11:52:18;99886.41;;;2.16;52.78
66547;BME280;53400;50.364;14.874;2023-02-28T11:54:58;99878.16;;;2.19;52.42
66547;BME280;53400;50.364;14.874;2023-02-28T11:57:34;99879.81;;;2.20;52.98
66547;BME280;53400;50.364;14.874;2023-02-28T12:00:10;99875.53;;;2.19;54.05
66547;BME280;53400;50.364;14.874;2023-02-28T12:02:55;99875.06;;;2.32;52.78
66547;BME280;53400;50.364;14.874;2023-02-28T12:05:30;99873.44;;;2.47;53.48
66547;BME280;53400;50.364;14.874;2023-02-28T12:08:10;99866.16;;;2.41;51.67
66547;BME280;53400;50.364;14.874;2023-02-28T12:10:48;99868.09;;;2.23;52.21
66547;BME280;53400;50.364;14.874;2023-02-28T12:13:21;99865.34;;;2.41;51.87
66547;BME280;53400;50.364;14.874;2023-02-28T12:16:12;99869.50;;;2.60;51.77
66547;BME280;53400;50.364;14.874;2023-02-28T12:18:55;99867.00;;;2.50;51.59
66547;BME280;53400;50.364;14.874;2023-02-28T12:21:32;99860.22;;;2.47;52.51
66547;BME280;53400;50.364;14.874;2023-02-28T12:24:31;99854.09;;;2.55;52.40
66547;BME280;53400;50.364;14.874;2023-02-28T12:27:06;99864.97;;;2.36;51.06
66547;BME280;53400;50.364;14.874;2023-02-28T12:29:46;99855.78;;;2.56;51.55
66547;BME280;53400;50.364;14.874;2023-02-28T12:32:19;99863.34;;;2.35;52.08
66547;BME280;53400;50.364;14.874;2023-02-28T12:34:49;99854.44;;;2.44;52.74
66547;BME280;53400;50.364;14.874;2023-02-28T12:37:21;99849.78;;;2.29;52.57
66547;BME280;53400;50.364;14.874;2023-02-28T12:39:51;99842.19;;;2.35;51.36
66547;BME280;53400;50.364;14.874;2023-02-28T12:42:24;99843.22;;;2.66;52.06
66547;BME280;53400;50.364;14.874;2023-02-28T12:44:57;99842.72;;;2.63;51.46
66547;BME280;53400;50.364;14.874;2023-02-28T12:47:25;99832.31;;;2.69;53.33
66547;BME280;53400;50.364;14.874;2023-02-28T12:49:54;99840.09;;;2.95;50.80
66547;BME280;53400;50.364;14.874;2023-02-28T12:52:27;99832.28;;;2.61;52.69
66547;BME280;53400;50.364;14.874;2023-02-28T12:54:59;99841.03;;;2.45;52.00
66547;BME280;53400;50.364;14.874;2023-02-28T12:57:33;99833.28;;;2.44;52.28
66547;BME280;53400;50.364;14.874;2023-02-28T13:00:04;99815.94;;;2.58;52.25
66547;BME280;53400;50.364;14.874;2023-02-28T13:02:53;99830.16;;;2.57;52.78
66547;BME280;53400;50.364;14.874;2023-02-28T13:05:48;99830.13;;;2.32;52.94
66547;BME280;53400;50.364;14.874;2023-02-28T13:08:32;99825.84;;;2.64;52.23
66547;BME280;53400;50.364;14.874;2023-02-28T13:11:03;99823.22;;;2.80;53.10
66547;BME280;53400;50.364;14.874;2023-02-28T13:13:30;99828.00;;;2.85;53.87
66547;BME280;53400;50.364;14.874;2023-02-28T13:15:59;99824.06;;;2.81;53.65
66547;BME280;53400;50.364;14.874;2023-02-28T13:18:37;99823.56;;;2.69;52.38